createdAt,value
2023-01-19T00:00:18.007Z,47.54
2023-01-19T00:03:21.591Z,47.67
2023-01-19T00:06:24.650Z,47.57
2023-01-19T00:09:33.298Z,47.74
2023-01-19T00:12:36.370Z,47.87
2023-01-19T00:15:40.509Z,47.87
2023-01-19T00:18:43.315Z,48.04
2023-01-19T00:21:46.192Z,48.04
2023-01-19T00:24:49.031Z,48.09
2023-01-19T00:27:51.798Z,48.16
2023-01-19T00:30:56.033Z,48.21
2023-01-19T00:33:58.884Z,48.29
2023-01-19T00:37:03.062Z,48.25
2023-01-19T00:40:07.495Z,48.26
2023-01-19T00:43:10.389Z,48.32
2023-01-19T00:46:14.984Z,48.35
2023-01-19T00:49:18.635Z,48.46
2023-01-19T00:52:21.503Z,48.37
2023-01-19T00:55:24.877Z,48.49
2023-01-19T00:58:27.673Z,48.53
2023-01-19T01:01:45.056Z,48.47
2023-01-19T01:04:54.651Z,48.55
2023-01-19T01:07:57.922Z,48.59
2023-01-19T01:11:00.786Z,48.65
2023-01-19T01:14:03.625Z,48.50
2023-01-19T01:17:11.282Z,48.54
2023-01-19T01:20:17.895Z,48.56
2023-01-19T01:23:22.672Z,48.70
2023-01-19T01:26:27.112Z,48.65
2023-01-19T01:29:30.651Z,48.57
2023-01-19T01:32:34.891Z,48.55
2023-01-19T01:35:37.716Z,48.68
2023-01-19T01:38:40.798Z,48.55
2023-01-19T01:41:43.591Z,48.76
2023-01-19T01:44:52.744Z,48.75
2023-01-19T01:48:02.331Z,48.58
2023-01-19T01:51:25.395Z,48.48
2023-01-19T01:54:30.478Z,48.62
2023-01-19T01:57:34.011Z,48.59
2023-01-19T02:00:51.788Z,48.67
2023-01-19T02:03:58.510Z,48.57
2023-01-19T02:07:18.485Z,48.72
2023-01-19T02:10:40.771Z,48.68
2023-01-19T02:13:45.238Z,48.72
2023-01-19T02:16:48.722Z,48.69
2023-01-19T02:19:53.940Z,48.72
2023-01-19T02:23:01.669Z,48.72
2023-01-19T02:26:09.529Z,48.73
2023-01-19T02:29:14.381Z,48.77
2023-01-19T02:32:17.356Z,48.72
2023-01-19T02:35:21.368Z,48.74
2023-01-19T02:38:27.914Z,48.86
2023-01-19T02:41:35.783Z,49.07
2023-01-19T02:44:41.063Z,48.97
2023-01-19T02:47:46.259Z,48.92
2023-01-19T02:50:53.081Z,48.83
2023-01-19T02:54:23.334Z,48.98
2023-01-19T02:57:39.950Z,48.93
2023-01-19T03:00:52.989Z,48.97
2023-01-19T03:04:00.923Z,48.94
2023-01-19T03:07:10.389Z,48.90
2023-01-19T03:10:22.223Z,49.01
2023-01-19T03:13:34.889Z,49.08
2023-01-19T03:16:42.374Z,48.98
2023-01-19T03:19:49.244Z,49.03
2023-01-19T03:22:59.226Z,49.03
2023-01-19T03:26:05.241Z,49.00
2023-01-19T03:29:13.185Z,49.02
2023-01-19T03:32:19.058Z,49.06
2023-01-19T03:35:25.237Z,49.11
2023-01-19T03:38:28.584Z,49.15
2023-01-19T03:41:34.268Z,49.21
2023-01-19T03:44:40.674Z,49.09
2023-01-19T03:47:43.575Z,49.03
2023-01-19T03:50:46.691Z,49.18
2023-01-19T03:53:50.569Z,49.14
2023-01-19T03:56:54.034Z,49.09
2023-01-19T03:59:58.255Z,49.04
2023-01-19T04:03:01.486Z,48.98
2023-01-19T04:06:04.749Z,49.03
2023-01-19T04:09:08.156Z,49.07
2023-01-19T04:12:11.084Z,48.94
2023-01-19T04:15:15.614Z,48.93
2023-01-19T04:18:18.398Z,49.03
2023-01-19T04:21:21.316Z,49.00
2023-01-19T04:24:24.173Z,48.98
2023-01-19T04:27:27.075Z,49.12
2023-01-19T04:30:31.264Z,48.98
2023-01-19T04:33:35.006Z,48.99
2023-01-19T04:36:37.830Z,48.99
2023-01-19T04:39:40.792Z,49.07
2023-01-19T04:42:45.343Z,49.10
2023-01-19T04:45:49.958Z,48.97
2023-01-19T04:48:52.751Z,49.13
2023-01-19T04:51:55.612Z,49.09
2023-01-19T04:54:58.437Z,49.09
2023-01-19T04:58:01.620Z,49.03
2023-01-19T05:01:10.104Z,49.13
2023-01-19T05:04:13.010Z,49.25
2023-01-19T05:07:15.984Z,49.21
2023-01-19T05:10:18.969Z,49.29
2023-01-19T05:13:22.085Z,49.16
2023-01-19T05:16:26.424Z,49.17
2023-01-19T05:19:29.252Z,49.22
2023-01-19T05:22:32.638Z,49.21
2023-01-19T05:25:35.713Z,49.21
2023-01-19T05:28:39.083Z,49.15
2023-01-19T05:31:43.452Z,49.18
2023-01-19T05:34:46.429Z,49.20
2023-01-19T05:37:49.882Z,49.14
2023-01-19T05:40:58.146Z,49.09
2023-01-19T05:44:00.930Z,49.06
2023-01-19T05:47:05.280Z,49.02
2023-01-19T05:50:08.860Z,48.95
2023-01-19T05:53:12.102Z,49.03
2023-01-19T05:56:14.895Z,49.13
2023-01-19T05:59:23.978Z,49.02
2023-01-19T06:02:30.144Z,49.02
2023-01-19T06:05:33.230Z,49.14
2023-01-19T06:08:36.088Z,48.96
2023-01-19T06:11:38.869Z,48.99
2023-01-19T06:14:41.748Z,48.98
2023-01-19T06:17:45.930Z,48.99
2023-01-19T06:20:49.106Z,49.09
2023-01-19T06:23:51.972Z,49.02
2023-01-19T06:26:55.298Z,49.09
2023-01-19T06:29:58.136Z,49.01
2023-01-19T06:33:02.678Z,48.94
2023-01-19T06:36:06.461Z,49.08
2023-01-19T06:39:10.651Z,49.07
2023-01-19T06:42:13.643Z,48.97
2023-01-19T06:45:16.625Z,49.04
2023-01-19T06:48:21.219Z,49.07
2023-01-19T06:51:25.525Z,49.13
2023-01-19T06:54:28.372Z,49.10
2023-01-19T06:57:31.230Z,49.07
2023-01-19T07:00:34.039Z,49.02
2023-01-19T07:03:38.624Z,49.03
2023-01-19T07:06:42.671Z,49.17
2023-01-19T07:09:45.593Z,48.99
2023-01-19T07:12:48.675Z,48.92
2023-01-19T07:15:51.637Z,49.13
2023-01-19T07:18:55.999Z,49.12
2023-01-19T07:21:59.137Z,49.24
2023-01-19T07:25:02.029Z,49.12
2023-01-19T07:28:05.006Z,49.20
2023-01-19T07:31:08.938Z,49.28
2023-01-19T07:34:13.148Z,49.21
2023-01-19T07:37:16.224Z,49.19
2023-01-19T07:40:19.308Z,49.22
2023-01-19T07:43:22.154Z,49.23
2023-01-19T07:46:25.139Z,49.20
2023-01-19T07:49:29.474Z,49.15
2023-01-19T07:52:32.334Z,47.55
2023-01-19T07:55:35.190Z,44.94
2023-01-19T07:58:38.511Z,43.41
2023-01-19T08:01:41.932Z,42.59
2023-01-19T08:04:48.932Z,41.71
2023-01-19T08:07:54.182Z,42.28
2023-01-19T08:10:57.176Z,42.38
2023-01-19T08:14:00.827Z,42.60
2023-01-19T08:17:04.858Z,42.78
2023-01-19T08:20:11.248Z,42.96
2023-01-19T08:23:14.104Z,43.13
2023-01-19T08:26:20.769Z,43.35
2023-01-19T08:29:23.770Z,43.56
2023-01-19T08:32:27.170Z,43.87
2023-01-19T08:35:31.498Z,43.95
2023-01-19T08:38:34.385Z,44.16
2023-01-19T08:41:37.330Z,44.26
2023-01-19T08:44:49.678Z,44.33
2023-01-19T08:48:00.150Z,44.33
2023-01-19T08:51:04.614Z,44.42
2023-01-19T08:54:07.519Z,44.71
2023-01-19T08:57:10.446Z,44.85
2023-01-19T09:00:14.561Z,44.97
2023-01-19T09:03:17.499Z,45.15
2023-01-19T09:06:21.868Z,45.37
2023-01-19T09:09:24.754Z,45.46
2023-01-19T09:12:27.721Z,45.66
2023-01-19T09:15:30.564Z,45.73
2023-01-19T09:18:33.645Z,45.87
2023-01-19T09:21:37.834Z,45.95
2023-01-19T09:24:40.812Z,46.07
2023-01-19T09:27:43.749Z,46.28
2023-01-19T09:30:46.948Z,46.30
2023-01-19T09:33:49.939Z,46.60
2023-01-19T09:36:54.200Z,46.63
2023-01-19T09:39:57.091Z,46.64
2023-01-19T09:43:12.965Z,46.98
2023-01-19T09:46:20.256Z,47.27
2023-01-19T09:49:32.696Z,47.87
2023-01-19T09:52:43.020Z,48.09
2023-01-19T09:55:46.024Z,47.98
2023-01-19T09:58:50.947Z,48.23
2023-01-19T10:02:07.716Z,48.40
2023-01-19T10:05:26.104Z,48.37
2023-01-19T10:08:38.814Z,48.25
2023-01-19T10:11:52.877Z,48.36
2023-01-19T10:15:04.754Z,48.20
2023-01-19T10:18:18.297Z,48.16
2023-01-19T10:21:24.235Z,48.31
2023-01-19T10:24:33.596Z,48.12
2023-01-19T10:27:37.590Z,48.16
2023-01-19T10:30:43.671Z,48.21
2023-01-19T10:33:46.688Z,48.33
2023-01-19T10:36:51.548Z,48.29
2023-01-19T10:39:58.209Z,48.25
2023-01-19T10:43:02.035Z,48.25
2023-01-19T10:46:07.537Z,48.34
2023-01-19T10:49:25.591Z,48.44
2023-01-19T10:52:32.810Z,48.45
2023-01-19T10:55:38.754Z,48.40
2023-01-19T10:58:41.796Z,48.50
2023-01-19T11:01:44.838Z,48.42
2023-01-19T11:04:50.199Z,48.54
2023-01-19T11:07:53.280Z,48.80
2023-01-19T11:11:04.353Z,48.90
2023-01-19T11:14:12.487Z,48.96
2023-01-19T11:17:21.694Z,48.96
2023-01-19T11:20:27.171Z,49.04
2023-01-19T11:23:32.591Z,48.96
2023-01-19T11:26:43.134Z,48.90
2023-01-19T11:29:49.495Z,48.88
2023-01-19T11:32:52.677Z,48.94
2023-01-19T11:36:04.694Z,49.04
2023-01-19T11:39:23.646Z,49.10
2023-01-19T11:42:31.182Z,48.96
2023-01-19T11:45:36.140Z,49.02
2023-01-19T11:48:43.653Z,48.93
2023-01-19T11:51:56.453Z,48.92
2023-01-19T11:55:04.924Z,48.85
2023-01-19T11:58:16.075Z,48.94
2023-01-19T12:01:24.765Z,48.96
2023-01-19T12:04:31.601Z,48.90
2023-01-19T12:07:37.455Z,48.96
2023-01-19T12:10:45.933Z,48.84
2023-01-19T12:13:52.467Z,48.86
2023-01-19T12:17:00.174Z,48.94
2023-01-19T12:20:14.061Z,48.86
2023-01-19T12:23:36.068Z,48.70
2023-01-19T12:26:44.090Z,48.75
2023-01-19T12:29:48.970Z,48.74
2023-01-19T12:32:52.323Z,48.62
2023-01-19T12:35:57.522Z,48.74
2023-01-19T12:39:03.955Z,48.68
2023-01-19T12:42:13.722Z,48.76
2023-01-19T12:45:22.996Z,48.73
2023-01-19T12:48:27.681Z,48.77
2023-01-19T12:51:30.713Z,48.74
2023-01-19T12:54:34.043Z,48.74
2023-01-19T12:57:40.089Z,48.78
2023-01-19T13:00:46.285Z,48.84
2023-01-19T13:04:06.687Z,48.83
2023-01-19T13:07:17.872Z,48.72
2023-01-19T13:10:55.832Z,48.83
2023-01-19T13:14:34.742Z,48.68
2023-01-19T13:17:49.931Z,48.67
2023-01-19T13:20:58.147Z,48.69
2023-01-19T13:24:02.763Z,48.83
2023-01-19T13:27:05.922Z,48.70
2023-01-19T13:30:16.921Z,48.78
2023-01-19T13:33:24.298Z,48.75
2023-01-19T13:36:31.613Z,48.75
2023-01-19T13:39:37.915Z,48.79
2023-01-19T13:42:42.658Z,48.67
2023-01-19T13:45:51.756Z,48.81
2023-01-19T13:49:00.885Z,48.77
2023-01-19T13:52:12.752Z,48.70
2023-01-19T13:55:16.796Z,48.90
2023-01-19T13:58:22.233Z,48.92
2023-01-19T14:01:28.903Z,48.97
2023-01-19T14:04:34.900Z,48.92
2023-01-19T14:07:37.835Z,49.01
2023-01-19T14:10:42.895Z,48.88
2023-01-19T14:13:45.809Z,48.93
2023-01-19T14:16:48.670Z,49.01
2023-01-19T14:19:54.467Z,49.00
2023-01-19T14:22:57.357Z,48.93
2023-01-19T14:26:00.204Z,48.93
2023-01-19T14:29:15.427Z,49.16
2023-01-19T14:32:20.477Z,49.15
2023-01-19T14:35:26.279Z,49.09
2023-01-19T14:38:29.123Z,49.11
2023-01-19T14:41:39.610Z,49.26
2023-01-19T14:44:48.058Z,49.16
2023-01-19T14:47:58.153Z,49.06
2023-01-19T14:51:05.423Z,49.01
2023-01-19T14:54:18.286Z,48.97
2023-01-19T14:57:21.071Z,49.06
2023-01-19T15:00:24.678Z,49.04
2023-01-19T15:03:43.630Z,48.98
2023-01-19T15:06:49.718Z,49.12
2023-01-19T15:09:52.830Z,49.13
2023-01-19T15:12:56.761Z,49.09
2023-01-19T15:15:59.691Z,48.94
2023-01-19T15:19:02.611Z,49.13
2023-01-19T15:22:12.426Z,48.99
2023-01-19T15:25:16.779Z,48.97
2023-01-19T15:28:20.926Z,48.92
2023-01-19T15:31:26.633Z,48.86
2023-01-19T15:34:29.537Z,49.04
2023-01-19T15:37:33.763Z,48.91
2023-01-19T15:40:36.640Z,49.01
2023-01-19T15:43:39.501Z,48.97
2023-01-19T15:46:42.295Z,48.87
2023-01-19T15:49:45.197Z,48.82
2023-01-19T15:52:49.514Z,48.86
2023-01-19T15:55:55.325Z,48.92
2023-01-19T15:58:59.144Z,48.85
2023-01-19T16:02:02.516Z,49.06
2023-01-19T16:05:06.421Z,49.06
2023-01-19T16:08:11.010Z,49.04
2023-01-19T16:11:18.423Z,49.37
2023-01-19T16:14:21.443Z,49.42
2023-01-19T16:17:24.540Z,49.59
2023-01-19T16:20:27.886Z,49.78
2023-01-19T16:23:47.564Z,49.68
2023-01-19T16:26:50.489Z,49.62
2023-01-19T16:29:53.649Z,49.67
2023-01-19T16:32:56.531Z,49.52
2023-01-19T16:35:59.388Z,49.65
2023-01-19T16:39:06.773Z,49.81
2023-01-19T16:42:09.766Z,50.05
2023-01-19T16:45:12.692Z,50.13
2023-01-19T16:48:15.543Z,49.89
2023-01-19T16:51:18.839Z,50.08
2023-01-19T16:54:25.979Z,49.88
2023-01-19T16:57:29.952Z,49.91
2023-01-19T17:00:32.831Z,49.71
2023-01-19T17:03:35.759Z,50.23
2023-01-19T17:06:39.186Z,50.22
2023-01-19T17:09:43.446Z,50.17
2023-01-19T17:12:46.367Z,50.30
2023-01-19T17:15:49.178Z,50.59
2023-01-19T17:18:52.772Z,50.48
2023-01-19T17:21:55.647Z,50.40
2023-01-19T17:24:59.903Z,50.33
2023-01-19T17:28:02.759Z,50.22
2023-01-19T17:31:07.237Z,50.19
2023-01-19T17:34:10.711Z,50.16
2023-01-19T17:37:13.650Z,50.21
2023-01-19T17:40:18.302Z,49.94
2023-01-19T17:43:21.167Z,49.63
2023-01-19T17:46:25.676Z,49.77
2023-01-19T17:49:28.700Z,49.83
2023-01-19T17:52:31.666Z,50.03
2023-01-19T17:55:35.949Z,49.97
2023-01-19T17:58:39.163Z,50.19
2023-01-19T18:01:42.918Z,50.03
2023-01-19T18:04:45.975Z,50.16
2023-01-19T18:07:48.869Z,50.39
2023-01-19T18:10:56.604Z,50.32
2023-01-19T18:14:00.182Z,50.36
2023-01-19T18:17:03.086Z,50.38
2023-01-19T18:20:06.904Z,50.32
2023-01-19T18:23:09.797Z,50.49
2023-01-19T18:26:15.598Z,50.26
2023-01-19T18:29:19.298Z,50.31
2023-01-19T18:32:22.274Z,50.22
2023-01-19T18:35:25.191Z,50.29
2023-01-19T18:38:28.320Z,50.24
2023-01-19T18:41:34.131Z,50.35
2023-01-19T18:44:37.196Z,50.07
2023-01-19T18:47:40.090Z,50.31
2023-01-19T18:50:43.928Z,50.28
2023-01-19T18:53:47.315Z,50.06
2023-01-19T18:56:52.132Z,49.99
2023-01-19T18:59:54.999Z,50.35
2023-01-19T19:02:58.467Z,50.18
2023-01-19T19:06:03.670Z,50.28
2023-01-19T19:09:06.807Z,50.19
2023-01-19T19:12:11.178Z,50.18
2023-01-19T19:15:14.276Z,50.13
2023-01-19T19:18:17.084Z,50.28
2023-01-19T19:21:24.040Z,50.31
2023-01-19T19:24:27.121Z,50.30
2023-01-19T19:27:31.365Z,50.03
2023-01-19T19:30:37.760Z,50.08
2023-01-19T19:33:41.216Z,50.37
2023-01-19T19:36:45.713Z,50.46
2023-01-19T19:39:49.271Z,50.40
2023-01-19T19:42:53.531Z,50.43
2023-01-19T19:46:00.189Z,50.31
2023-01-19T19:49:03.164Z,50.42
2023-01-19T19:52:06.649Z,50.54
2023-01-19T19:55:12.652Z,50.40
2023-01-19T19:58:17.067Z,50.33
2023-01-19T20:01:24.003Z,50.38
2023-01-19T20:04:28.306Z,50.15
2023-01-19T20:07:31.359Z,50.00
2023-01-19T20:10:37.437Z,50.23
2023-01-19T20:13:43.355Z,50.32
2023-01-19T20:16:46.270Z,50.42
2023-01-19T20:19:49.335Z,50.38
2023-01-19T20:22:52.898Z,50.38
2023-01-19T20:25:55.703Z,50.43
2023-01-19T20:29:02.847Z,50.32
2023-01-19T20:32:05.989Z,50.34
2023-01-19T20:35:08.917Z,50.21
2023-01-19T20:38:11.770Z,50.26
2023-01-19T20:41:14.881Z,50.27
2023-01-19T20:44:22.321Z,50.21
2023-01-19T20:47:25.896Z,50.14
2023-01-19T20:50:28.735Z,50.24
2023-01-19T20:53:32.539Z,50.38
2023-01-19T20:56:35.394Z,50.45
2023-01-19T20:59:40.956Z,50.57
2023-01-19T21:02:43.961Z,50.38
2023-01-19T21:05:47.680Z,50.46
2023-01-19T21:08:50.700Z,50.40
2023-01-19T21:11:56.526Z,50.24
2023-01-19T21:15:01.635Z,50.33
2023-01-19T21:18:04.933Z,50.38
2023-01-19T21:21:10.690Z,50.29
2023-01-19T21:24:17.993Z,50.39
2023-01-19T21:27:21.198Z,50.48
2023-01-19T21:30:25.434Z,50.32
2023-01-19T21:33:28.306Z,50.34
2023-01-19T21:36:31.198Z,50.34
2023-01-19T21:39:34.106Z,50.35
2023-01-19T21:42:37.004Z,50.23
2023-01-19T21:45:43.093Z,50.24
2023-01-19T21:48:46.833Z,50.08
2023-01-19T21:51:50.666Z,50.02
2023-01-19T21:54:53.530Z,49.98
2023-01-19T21:57:56.390Z,50.02
2023-01-19T22:01:05.429Z,50.05
2023-01-19T22:04:08.434Z,50.11
2023-01-19T22:07:11.323Z,50.00
2023-01-19T22:10:14.135Z,49.96
2023-01-19T22:13:17.430Z,50.02
2023-01-19T22:16:23.178Z,50.00
2023-01-19T22:19:26.014Z,50.03
2023-01-19T22:22:28.906Z,49.92
2023-01-19T22:25:33.935Z,49.94
2023-01-19T22:28:37.365Z,49.99
2023-01-19T22:31:41.564Z,50.03
2023-01-19T22:34:44.448Z,49.95
2023-01-19T22:37:47.294Z,49.96
2023-01-19T22:40:50.156Z,49.87
2023-01-19T22:43:55.755Z,49.99
2023-01-19T22:46:59.941Z,49.99
2023-01-19T22:50:02.793Z,50.03
2023-01-19T22:53:05.660Z,49.96
2023-01-19T22:56:12.977Z,49.91
2023-01-19T22:59:15.878Z,49.96
2023-01-19T23:02:21.010Z,50.01
2023-01-19T23:05:24.098Z,49.89
2023-01-19T23:08:26.972Z,49.92
2023-01-19T23:11:35.551Z,49.91
2023-01-19T23:14:38.747Z,49.96
2023-01-19T23:17:44.710Z,49.85
2023-01-19T23:20:47.604Z,49.87
2023-01-19T23:23:53.626Z,49.82
2023-01-19T23:26:56.477Z,49.83
2023-01-19T23:29:59.331Z,49.82
2023-01-19T23:33:03.578Z,49.95
2023-01-19T23:36:07.202Z,49.72
2023-01-19T23:39:17.481Z,49.85
2023-01-19T23:42:20.298Z,49.84
2023-01-19T23:45:23.129Z,49.89
2023-01-19T23:48:27.429Z,49.85
2023-01-19T23:51:32.343Z,49.85
2023-01-19T23:54:35.501Z,49.81
2023-01-19T23:57:38.273Z,49.88
